sensor_id;sensor_type;location;lat;lon;timestamp;temperature;humidity
37518;DHT22;23366;52.498;13.446;2023-04-06T00:00:45;5.40;99.90
37518;DHT22;23366;52.498;13.446;2023-04-06T00:03:12;5.50;99.90
37518;DHT22;23366;52.498;13.446;2023-04-06T00:05:38;5.30;99.90
37518;DHT22;23366;52.498;13.446;2023-04-06T00:08:03;5.30;99.90
37518;DHT22;23366;52.498;13.446;2023-04-06T00:10:29;5.40;99.90
37518;DHT22;23366;52.498;13.446;2023-04-06T00:12:54;5.40;99.90
37518;DHT22;23366;52.498;13.446;2023-04-06T00:15:21;5.40;99.90
37518;DHT22;23366;52.498;13.446;2023-04-06T00:17:49;5.40;99.90
37518;DHT22;23366;52.498;13.446;2023-04-06T00:20:16;5.30;99.90
37518;DHT22;23366;52.498;13.446;2023-04-06T00:22:43;5.30;99.90
37518;DHT22;23366;52.498;13.446;2023-04-06T00:25:09;5.30;99.90
37518;DHT22;23366;52.498;13.446;2023-04-06T00:27:36;5.30;99.90
37518;DHT22;23366;52.498;13.446;2023-04-06T00:30:05;5.20;99.90
37518;DHT22;23366;52.498;13.446;2023-04-06T00:32:31;5.30;99.90
37518;DHT22;23366;52.498;13.446;2023-04-06T00:34:58;5.30;99.90
37518;DHT22;23366;52.498;13.446;2023-04-06T00:37:23;5.30;99.90
37518;DHT22;23366;52.498;13.446;2023-04-06T00:39:49;5.20;99.90
37518;DHT22;23366;52.498;13.446;2023-04-06T00:42:16;5.20;99.90
37518;DHT22;23366;52.498;13.446;2023-04-06T00:44:43;5.20;99.90
37518;DHT22;23366;52.498;13.446;2023-04-06T00:47:09;5.10;99.90
37518;DHT22;23366;52.498;13.446;2023-04-06T00:49:35;5.20;99.90
37518;DHT22;23366;52.498;13.446;2023-04-06T00:52:01;5.10;99.90
37518;DHT22;23366;52.498;13.446;2023-04-06T00:54:28;5.10;99.90
37518;DHT22;23366;52.498;13.446;2023-04-06T00:56:54;5.10;99.90
37518;DHT22;23366;52.498;13.446;2023-04-06T00:59:20;5.10;99.90
37518;DHT22;23366;52.498;13.446;2023-04-06T01:01:46;5.20;99.90
37518;DHT22;23366;52.498;13.446;2023-04-06T01:04:11;5.20;99.90
37518;DHT22;23366;52.498;13.446;2023-04-06T01:06:37;5.20;99.90
37518;DHT22;23366;52.498;13.446;2023-04-06T01:09:02;5.10;99.90
37518;DHT22;23366;52.498;13.446;2023-04-06T01:11:28;5.10;99.90
37518;DHT22;23366;52.498;13.446;2023-04-06T01:13:53;5.10;99.90
37518;DHT22;23366;52.498;13.446;2023-04-06T01:16:19;5.10;99.90
37518;DHT22;23366;52.498;13.446;2023-04-06T01:18:45;5.10;99.90
37518;DHT22;23366;52.498;13.446;2023-04-06T01:21:10;5.00;99.90
37518;DHT22;23366;52.498;13.446;2023-04-06T01:23:43;5.10;99.90
37518;DHT22;23366;52.498;13.446;2023-04-06T01:26:08;5.00;99.90
37518;DHT22;23366;52.498;13.446;2023-04-06T01:28:34;5.00;99.90
37518;DHT22;23366;52.498;13.446;2023-04-06T01:30:59;5.00;99.90
37518;DHT22;23366;52.498;13.446;2023-04-06T01:33:25;5.00;99.90
37518;DHT22;23366;52.498;13.446;2023-04-06T01:35:50;5.00;99.90
37518;DHT22;23366;52.498;13.446;2023-04-06T01:38:16;5.00;99.90
37518;DHT22;23366;52.498;13.446;2023-04-06T01:40:41;5.00;99.90
37518;DHT22;23366;52.498;13.446;2023-04-06T01:43:07;5.10;99.90
37518;DHT22;23366;52.498;13.446;2023-04-06T01:45:32;5.10;99.90
37518;DHT22;23366;52.498;13.446;2023-04-06T01:47:58;5.10;99.90
37518;DHT22;23366;52.498;13.446;2023-04-06T01:50:23;5.00;99.90
37518;DHT22;23366;52.498;13.446;2023-04-06T01:52:49;5.10;99.90
37518;DHT22;23366;52.498;13.446;2023-04-06T01:55:15;5.00;99.90
37518;DHT22;23366;52.498;13.446;2023-04-06T01:57:40;5.00;99.90
37518;DHT22;23366;52.498;13.446;2023-04-06T02:00:06;5.00;99.90
37518;DHT22;23366;52.498;13.446;2023-04-06T02:02:32;4.90;99.90
37518;DHT22;23366;52.498;13.446;2023-04-06T02:04:57;4.90;99.90
37518;DHT22;23366;52.498;13.446;2023-04-06T02:07:23;4.90;99.90
37518;DHT22;23366;52.498;13.446;2023-04-06T02:09:50;4.90;99.90
37518;DHT22;23366;52.498;13.446;2023-04-06T02:12:16;4.90;99.90
37518;DHT22;23366;52.498;13.446;2023-04-06T02:14:41;4.90;99.90
37518;DHT22;23366;52.498;13.446;2023-04-06T02:17:07;4.90;99.90
37518;DHT22;23366;52.498;13.446;2023-04-06T02:19:32;4.80;99.90
37518;DHT22;23366;52.498;13.446;2023-04-06T02:21:58;4.80;99.90
37518;DHT22;23366;52.498;13.446;2023-04-06T02:24:23;4.80;99.90
37518;DHT22;23366;52.498;13.446;2023-04-06T02:26:49;4.80;99.90
37518;DHT22;23366;52.498;13.446;2023-04-06T02:29:15;4.70;99.90
37518;DHT22;23366;52.498;13.446;2023-04-06T02:31:40;4.70;99.90
37518;DHT22;23366;52.498;13.446;2023-04-06T02:34:06;4.70;99.90
37518;DHT22;23366;52.498;13.446;2023-04-06T02:36:33;4.80;99.90
37518;DHT22;23366;52.498;13.446;2023-04-06T02:38:58;4.70;99.90
37518;DHT22;23366;52.498;13.446;2023-04-06T02:41:24;4.60;99.90
37518;DHT22;23366;52.498;13.446;2023-04-06T02:43:49;4.70;99.90
37518;DHT22;23366;52.498;13.446;2023-04-06T02:46:15;4.60;99.90
37518;DHT22;23366;52.498;13.446;2023-04-06T02:48:40;4.60;99.90
37518;DHT22;23366;52.498;13.446;2023-04-06T02:51:07;4.60;99.90
37518;DHT22;23366;52.498;13.446;2023-04-06T02:53:32;4.50;99.90
37518;DHT22;23366;52.498;13.446;2023-04-06T02:55:58;4.40;99.90
37518;DHT22;23366;52.498;13.446;2023-04-06T02:58:23;4.40;99.90
37518;DHT22;23366;52.498;13.446;2023-04-06T03:00:49;4.30;99.90
37518;DHT22;23366;52.498;13.446;2023-04-06T03:03:14;4.30;99.90
37518;DHT22;23366;52.498;13.446;2023-04-06T03:05:40;4.20;99.90
37518;DHT22;23366;52.498;13.446;2023-04-06T03:08:05;4.20;99.90
37518;DHT22;23366;52.498;13.446;2023-04-06T03:10:31;4.10;99.90
37518;DHT22;23366;52.498;13.446;2023-04-06T03:12:57;4.10;99.90
37518;DHT22;23366;52.498;13.446;2023-04-06T03:15:22;4.00;99.90
37518;DHT22;23366;52.498;13.446;2023-04-06T03:17:48;3.90;99.90
37518;DHT22;23366;52.498;13.446;2023-04-06T03:20:13;3.90;99.90
37518;DHT22;23366;52.498;13.446;2023-04-06T03:22:39;3.90;99.90
37518;DHT22;23366;52.498;13.446;2023-04-06T03:25:05;3.90;99.90
37518;DHT22;23366;52.498;13.446;2023-04-06T03:27:31;3.80;99.90
37518;DHT22;23366;52.498;13.446;2023-04-06T03:29:56;3.80;99.90
37518;DHT22;23366;52.498;13.446;2023-04-06T03:32:22;3.80;99.90
37518;DHT22;23366;52.498;13.446;2023-04-06T03:34:47;3.70;99.90
37518;DHT22;23366;52.498;13.446;2023-04-06T03:37:13;3.70;99.90
37518;DHT22;23366;52.498;13.446;2023-04-06T03:39:38;3.60;99.90
37518;DHT22;23366;52.498;13.446;2023-04-06T03:42:04;3.60;99.90
37518;DHT22;23366;52.498;13.446;2023-04-06T03:44:30;3.60;99.90
37518;DHT22;23366;52.498;13.446;2023-04-06T03:46:55;3.60;99.90
37518;DHT22;23366;52.498;13.446;2023-04-06T03:49:21;3.60;99.90
37518;DHT22;23366;52.498;13.446;2023-04-06T03:51:46;3.60;99.90
37518;DHT22;23366;52.498;13.446;2023-04-06T03:54:12;3.60;99.90
37518;DHT22;23366;52.498;13.446;2023-04-06T03:56:37;3.60;99.90
37518;DHT22;23366;52.498;13.446;2023-04-06T03:59:03;3.50;99.90
37518;DHT22;23366;52.498;13.446;2023-04-06T04:01:28;3.60;99.90
37518;DHT22;23366;52.498;13.446;2023-04-06T04:03:54;3.50;99.90
37518;DHT22;23366;52.498;13.446;2023-04-06T04:06:19;3.50;99.90
37518;DHT22;23366;52.498;13.446;2023-04-06T04:08:45;3.50;99.90
37518;DHT22;23366;52.498;13.446;2023-04-06T04:11:10;3.50;99.90
37518;DHT22;23366;52.498;13.446;2023-04-06T04:13:36;3.50;99.90
37518;DHT22;23366;52.498;13.446;2023-04-06T04:16:01;3.40;99.90
37518;DHT22;23366;52.498;13.446;2023-04-06T04:18:27;3.40;99.90
37518;DHT22;23366;52.498;13.446;2023-04-06T04:20:52;3.40;99.90
37518;DHT22;23366;52.498;13.446;2023-04-06T04:23:18;3.40;99.90
37518;DHT22;23366;52.498;13.446;2023-04-06T04:25:43;3.40;99.90
37518;DHT22;23366;52.498;13.446;2023-04-06T04:28:09;3.40;99.90
37518;DHT22;23366;52.498;13.446;2023-04-06T04:30:35;3.40;99.90
37518;DHT22;23366;52.498;13.446;2023-04-06T04:33:00;3.40;99.90
37518;DHT22;23366;52.498;13.446;2023-04-06T04:35:26;3.40;99.90
37518;DHT22;23366;52.498;13.446;2023-04-06T04:37:52;3.40;99.90
37518;DHT22;23366;52.498;13.446;2023-04-06T04:40:17;3.40;99.90
37518;DHT22;23366;52.498;13.446;2023-04-06T04:42:43;3.40;99.90
37518;DHT22;23366;52.498;13.446;2023-04-06T04:45:09;3.40;99.90
37518;DHT22;23366;52.498;13.446;2023-04-06T04:47:34;3.30;99.90
37518;DHT22;23366;52.498;13.446;2023-04-06T04:50:00;3.40;99.90
37518;DHT22;23366;52.498;13.446;2023-04-06T04:52:25;3.30;99.90
37518;DHT22;23366;52.498;13.446;2023-04-06T04:54:51;3.20;99.90
37518;DHT22;23366;52.498;13.446;2023-04-06T04:57:16;3.30;99.90
37518;DHT22;23366;52.498;13.446;2023-04-06T04:59:43;3.30;99.90
37518;DHT22;23366;52.498;13.446;2023-04-06T05:02:08;3.30;99.90
37518;DHT22;23366;52.498;13.446;2023-04-06T05:04:33;3.30;99.90
37518;DHT22;23366;52.498;13.446;2023-04-06T05:07:07;3.30;99.90
37518;DHT22;23366;52.498;13.446;2023-04-06T05:09:32;3.30;99.90
37518;DHT22;23366;52.498;13.446;2023-04-06T05:11:59;3.50;99.90
37518;DHT22;23366;52.498;13.446;2023-04-06T05:14:26;3.60;99.90
37518;DHT22;23366;52.498;13.446;2023-04-06T05:16:51;3.80;99.90
37518;DHT22;23366;52.498;13.446;2023-04-06T05:19:17;3.90;99.90
37518;DHT22;23366;52.498;13.446;2023-04-06T05:21:43;4.40;99.90
37518;DHT22;23366;52.498;13.446;2023-04-06T05:24:08;5.60;99.90
37518;DHT22;23366;52.498;13.446;2023-04-06T05:26:34;7.20;99.90
37518;DHT22;23366;52.498;13.446;2023-04-06T05:29:00;8.90;99.90
37518;DHT22;23366;52.498;13.446;2023-04-06T05:31:26;10.40;99.90
37518;DHT22;23366;52.498;13.446;2023-04-06T05:33:51;11.80;95.10
37518;DHT22;23366;52.498;13.446;2023-04-06T05:36:17;12.60;92.00
37518;DHT22;23366;52.498;13.446;2023-04-06T05:38:42;14.00;87.50
37518;DHT22;23366;52.498;13.446;2023-04-06T05:41:08;14.60;82.20
37518;DHT22;23366;52.498;13.446;2023-04-06T05:43:33;15.40;78.70
37518;DHT22;23366;52.498;13.446;2023-04-06T05:45:59;15.50;74.30
37518;DHT22;23366;52.498;13.446;2023-04-06T05:48:24;16.50;72.70
37518;DHT22;23366;52.498;13.446;2023-04-06T05:50:50;17.00;69.80
37518;DHT22;23366;52.498;13.446;2023-04-06T05:53:16;16.90;67.30
37518;DHT22;23366;52.498;13.446;2023-04-06T05:55:42;17.50;67.00
37518;DHT22;23366;52.498;13.446;2023-04-06T05:58:07;17.00;64.80
37518;DHT22;23366;52.498;13.446;2023-04-06T06:00:33;15.60;67.00
37518;DHT22;23366;52.498;13.446;2023-04-06T06:02:58;16.20;65.80
37518;DHT22;23366;52.498;13.446;2023-04-06T06:05:24;16.70;66.20
37518;DHT22;23366;52.498;13.446;2023-04-06T06:07:49;16.30;65.60
37518;DHT22;23366;52.498;13.446;2023-04-06T06:10:15;16.50;64.70
37518;DHT22;23366;52.498;13.446;2023-04-06T06:12:41;16.40;64.30
37518;DHT22;23366;52.498;13.446;2023-04-06T06:15:07;16.80;63.20
37518;DHT22;23366;52.498;13.446;2023-04-06T06:17:32;16.60;62.00
37518;DHT22;23366;52.498;13.446;2023-04-06T06:19:58;16.40;62.10
37518;DHT22;23366;52.498;13.446;2023-04-06T06:22:24;16.70;62.60
37518;DHT22;23366;52.498;13.446;2023-04-06T06:24:49;17.10;62.30
37518;DHT22;23366;52.498;13.446;2023-04-06T06:27:15;17.10;61.60
37518;DHT22;23366;52.498;13.446;2023-04-06T06:29:41;17.30;61.00
37518;DHT22;23366;52.498;13.446;2023-04-06T06:32:07;17.60;59.70
37518;DHT22;23366;52.498;13.446;2023-04-06T06:34:34;17.70;59.60
37518;DHT22;23366;52.498;13.446;2023-04-06T06:37:00;17.50;59.80
37518;DHT22;23366;52.498;13.446;2023-04-06T06:39:27;17.70;59.30
37518;DHT22;23366;52.498;13.446;2023-04-06T06:41:53;18.30;58.20
37518;DHT22;23366;52.498;13.446;2023-04-06T06:44:20;18.30;57.80
37518;DHT22;23366;52.498;13.446;2023-04-06T06:46:47;19.20;56.90
37518;DHT22;23366;52.498;13.446;2023-04-06T06:49:12;20.80;55.00
37518;DHT22;23366;52.498;13.446;2023-04-06T06:51:39;21.00;54.00
37518;DHT22;23366;52.498;13.446;2023-04-06T06:54:05;21.30;52.30
37518;DHT22;23366;52.498;13.446;2023-04-06T06:56:30;21.90;51.60
37518;DHT22;23366;52.498;13.446;2023-04-06T06:58:56;21.30;50.90
37518;DHT22;23366;52.498;13.446;2023-04-06T07:01:22;21.50;50.40
37518;DHT22;23366;52.498;13.446;2023-04-06T07:03:47;21.10;51.30
37518;DHT22;23366;52.498;13.446;2023-04-06T07:06:13;20.70;51.00
37518;DHT22;23366;52.498;13.446;2023-04-06T07:08:38;20.20;51.20
37518;DHT22;23366;52.498;13.446;2023-04-06T07:11:04;20.00;51.80
37518;DHT22;23366;52.498;13.446;2023-04-06T07:13:29;20.80;51.50
37518;DHT22;23366;52.498;13.446;2023-04-06T07:15:57;21.60;49.90
37518;DHT22;23366;52.498;13.446;2023-04-06T07:18:23;22.10;48.80
37518;DHT22;23366;52.498;13.446;2023-04-06T07:20:49;21.60;47.70
37518;DHT22;23366;52.498;13.446;2023-04-06T07:23:15;22.10;48.30
37518;DHT22;23366;52.498;13.446;2023-04-06T07:25:40;22.90;47.50
37518;DHT22;23366;52.498;13.446;2023-04-06T07:28:06;23.90;45.80
37518;DHT22;23366;52.498;13.446;2023-04-06T07:30:32;24.60;45.70
37518;DHT22;23366;52.498;13.446;2023-04-06T07:32:57;25.10;44.60
37518;DHT22;23366;52.498;13.446;2023-04-06T07:35:25;25.50;44.00
37518;DHT22;23366;52.498;13.446;2023-04-06T07:37:52;25.90;43.10
37518;DHT22;23366;52.498;13.446;2023-04-06T07:40:18;27.00;42.50
37518;DHT22;23366;52.498;13.446;2023-04-06T07:42:45;27.00;41.80
37518;DHT22;23366;52.498;13.446;2023-04-06T07:45:10;26.20;40.70
37518;DHT22;23366;52.498;13.446;2023-04-06T07:47:36;25.40;41.30
37518;DHT22;23366;52.498;13.446;2023-04-06T07:50:02;26.20;42.00
37518;DHT22;23366;52.498;13.446;2023-04-06T07:52:27;26.30;40.70
37518;DHT22;23366;52.498;13.446;2023-04-06T07:54:53;26.10;40.10
37518;DHT22;23366;52.498;13.446;2023-04-06T07:57:18;25.40;40.40
37518;DHT22;23366;52.498;13.446;2023-04-06T07:59:44;25.40;40.90
37518;DHT22;23366;52.498;13.446;2023-04-06T08:02:09;25.20;40.80
37518;DHT22;23366;52.498;13.446;2023-04-06T08:04:35;26.70;40.60
37518;DHT22;23366;52.498;13.446;2023-04-06T08:07:01;26.00;39.40
37518;DHT22;23366;52.498;13.446;2023-04-06T08:09:27;25.70;39.80
37518;DHT22;23366;52.498;13.446;2023-04-06T08:11:53;25.80;40.10
37518;DHT22;23366;52.498;13.446;2023-04-06T08:14:19;25.80;39.50
37518;DHT22;23366;52.498;13.446;2023-04-06T08:16:45;25.00;39.90
37518;DHT22;23366;52.498;13.446;2023-04-06T08:19:10;24.60;40.60
37518;DHT22;23366;52.498;13.446;2023-04-06T08:21:36;24.10;41.00
37518;DHT22;23366;52.498;13.446;2023-04-06T08:24:02;24.20;40.90
37518;DHT22;23366;52.498;13.446;2023-04-06T08:26:28;24.10;41.40
37518;DHT22;23366;52.498;13.446;2023-04-06T08:28:53;24.30;40.60
37518;DHT22;23366;52.498;13.446;2023-04-06T08:31:19;25.00;40.30
37518;DHT22;23366;52.498;13.446;2023-04-06T08:33:45;22.90;41.30
37518;DHT22;23366;52.498;13.446;2023-04-06T08:36:14;23.00;41.40
37518;DHT22;23366;52.498;13.446;2023-04-06T08:38:41;23.80;41.30
37518;DHT22;23366;52.498;13.446;2023-04-06T08:41:13;23.00;41.80
37518;DHT22;23366;52.498;13.446;2023-04-06T08:43:53;23.30;41.40
37518;DHT22;23366;52.498;13.446;2023-04-06T08:46:21;23.20;40.50
37518;DHT22;23366;52.498;13.446;2023-04-06T08:48:48;23.30;41.00
37518;DHT22;23366;52.498;13.446;2023-04-06T08:51:15;23.70;40.30
37518;DHT22;23366;52.498;13.446;2023-04-06T08:53:41;23.60;40.40
37518;DHT22;23366;52.498;13.446;2023-04-06T08:56:07;23.90;39.70
37518;DHT22;23366;52.498;13.446;2023-04-06T08:58:37;22.90;40.50
37518;DHT22;23366;52.498;13.446;2023-04-06T09:01:07;21.80;41.10
37518;DHT22;23366;52.498;13.446;2023-04-06T09:03:37;20.90;41.90
37518;DHT22;23366;52.498;13.446;2023-04-06T09:06:04;19.70;44.00
37518;DHT22;23366;52.498;13.446;2023-04-06T09:08:30;18.70;44.20
37518;DHT22;23366;52.498;13.446;2023-04-06T09:10:55;17.40;45.50
37518;DHT22;23366;52.498;13.446;2023-04-06T09:13:21;16.80;47.90
37518;DHT22;23366;52.498;13.446;2023-04-06T09:15:46;16.10;48.30
37518;DHT22;23366;52.498;13.446;2023-04-06T09:18:12;16.00;49.60
37518;DHT22;23366;52.498;13.446;2023-04-06T09:20:37;15.50;49.30
37518;DHT22;23366;52.498;13.446;2023-04-06T09:23:03;15.20;49.80
37518;DHT22;23366;52.498;13.446;2023-04-06T09:25:28;15.00;49.80
37518;DHT22;23366;52.498;13.446;2023-04-06T09:28:03;14.70;51.30
37518;DHT22;23366;52.498;13.446;2023-04-06T09:30:28;14.40;52.50
37518;DHT22;23366;52.498;13.446;2023-04-06T09:32:56;14.30;50.80
37518;DHT22;23366;52.498;13.446;2023-04-06T09:35:22;14.10;51.30
37518;DHT22;23366;52.498;13.446;2023-04-06T09:37:52;14.00;52.10
37518;DHT22;23366;52.498;13.446;2023-04-06T09:40:18;14.20;52.20
37518;DHT22;23366;52.498;13.446;2023-04-06T09:42:48;14.20;52.80
37518;DHT22;23366;52.498;13.446;2023-04-06T09:45:15;14.00;50.40
37518;DHT22;23366;52.498;13.446;2023-04-06T09:47:44;14.00;50.10
37518;DHT22;23366;52.498;13.446;2023-04-06T09:50:11;13.80;50.40
37518;DHT22;23366;52.498;13.446;2023-04-06T09:55:05;13.60;51.00
37518;DHT22;23366;52.498;13.446;2023-04-06T09:57:44;13.50;51.40
37518;DHT22;23366;52.498;13.446;2023-04-06T10:00:11;13.30;51.10
37518;DHT22;23366;52.498;13.446;2023-04-06T10:02:58;13.30;51.50
37518;DHT22;23366;52.498;13.446;2023-04-06T10:08:12;13.60;51.80
37518;DHT22;23366;52.498;13.446;2023-04-06T10:10:38;13.70;49.90
37518;DHT22;23366;52.498;13.446;2023-04-06T10:13:05;13.80;48.40
37518;DHT22;23366;52.498;13.446;2023-04-06T10:15:31;14.10;49.70
37518;DHT22;23366;52.498;13.446;2023-04-06T10:18:00;14.10;49.60
37518;DHT22;23366;52.498;13.446;2023-04-06T10:20:51;13.80;49.90
37518;DHT22;23366;52.498;13.446;2023-04-06T10:26:03;13.80;49.60
37518;DHT22;23366;52.498;13.446;2023-04-06T10:28:33;13.90;48.70
37518;DHT22;23366;52.498;13.446;2023-04-06T10:31:01;14.20;48.80
37518;DHT22;23366;52.498;13.446;2023-04-06T10:33:27;14.40;48.30
37518;DHT22;23366;52.498;13.446;2023-04-06T10:35:53;13.80;48.40
37518;DHT22;23366;52.498;13.446;2023-04-06T10:38:21;13.50;49.00
37518;DHT22;23366;52.498;13.446;2023-04-06T10:40:48;13.40;50.00
37518;DHT22;23366;52.498;13.446;2023-04-06T10:43:19;13.30;49.90
37518;DHT22;23366;52.498;13.446;2023-04-06T10:45:44;13.20;48.90
37518;DHT22;23366;52.498;13.446;2023-04-06T10:48:18;13.40;51.20
37518;DHT22;23366;52.498;13.446;2023-04-06T10:50:47;13.40;49.70
37518;DHT22;23366;52.498;13.446;2023-04-06T10:53:27;13.20;49.80
37518;DHT22;23366;52.498;13.446;2023-04-06T10:55:54;12.90;50.40
37518;DHT22;23366;52.498;13.446;2023-04-06T10:58:24;12.70;50.60
37518;DHT22;23366;52.498;13.446;2023-04-06T11:00:50;12.90;51.60
37518;DHT22;23366;52.498;13.446;2023-04-06T11:03:16;12.80;51.80
37518;DHT22;23366;52.498;13.446;2023-04-06T11:05:45;12.70;51.80
37518;DHT22;23366;52.498;13.446;2023-04-06T11:08:29;12.60;51.80
37518;DHT22;23366;52.498;13.446;2023-04-06T11:11:13;12.50;51.80
37518;DHT22;23366;52.498;13.446;2023-04-06T11:13:50;12.50;52.30
37518;DHT22;23366;52.498;13.446;2023-04-06T11:16:20;12.40;51.80
37518;DHT22;23366;52.498;13.446;2023-04-06T11:18:48;12.70;51.10
37518;DHT22;23366;52.498;13.446;2023-04-06T11:21:13;12.90;51.30
37518;DHT22;23366;52.498;13.446;2023-04-06T11:23:39;13.00;51.90
37518;DHT22;23366;52.498;13.446;2023-04-06T11:26:13;13.10;51.00
37518;DHT22;23366;52.498;13.446;2023-04-06T11:28:41;13.20;49.40
37518;DHT22;23366;52.498;13.446;2023-04-06T11:31:07;13.10;49.90
37518;DHT22;23366;52.498;13.446;2023-04-06T11:33:37;13.00;49.20
37518;DHT22;23366;52.498;13.446;2023-04-06T11:36:05;12.90;49.40
37518;DHT22;23366;52.498;13.446;2023-04-06T11:38:31;12.90;49.90
37518;DHT22;23366;52.498;13.446;2023-04-06T11:40:57;13.00;50.10
37518;DHT22;23366;52.498;13.446;2023-04-06T11:43:27;13.00;50.90
37518;DHT22;23366;52.498;13.446;2023-04-06T11:46:02;12.90;51.90
37518;DHT22;23366;52.498;13.446;2023-04-06T11:48:28;12.90;51.30
37518;DHT22;23366;52.498;13.446;2023-04-06T11:51:01;12.90;51.70
37518;DHT22;23366;52.498;13.446;2023-04-06T11:53:28;12.90;51.80
37518;DHT22;23366;52.498;13.446;2023-04-06T11:55:54;12.90;51.70
37518;DHT22;23366;52.498;13.446;2023-04-06T11:58:19;13.00;50.30
37518;DHT22;23366;52.498;13.446;2023-04-06T12:00:45;13.10;50.90
37518;DHT22;23366;52.498;13.446;2023-04-06T12:03:14;13.20;49.70
37518;DHT22;23366;52.498;13.446;2023-04-06T12:05:39;13.30;49.80
37518;DHT22;23366;52.498;13.446;2023-04-06T12:08:05;13.40;49.50
37518;DHT22;23366;52.498;13.446;2023-04-06T12:10:30;13.70;49.90
37518;DHT22;23366;52.498;13.446;2023-04-06T12:12:56;13.90;49.00
37518;DHT22;23366;52.498;13.446;2023-04-06T12:15:21;14.00;49.40
37518;DHT22;23366;52.498;13.446;2023-04-06T12:17:47;13.90;49.80
37518;DHT22;23366;52.498;13.446;2023-04-06T12:20:13;13.80;49.70
37518;DHT22;23366;52.498;13.446;2023-04-06T12:22:39;13.70;49.80
37518;DHT22;23366;52.498;13.446;2023-04-06T12:25:05;13.70;49.50
37518;DHT22;23366;52.498;13.446;2023-04-06T12:27:32;13.60;49.70
37518;DHT22;23366;52.498;13.446;2023-04-06T12:29:57;13.50;50.00
37518;DHT22;23366;52.498;13.446;2023-04-06T12:32:23;13.20;49.90
37518;DHT22;23366;52.498;13.446;2023-04-06T12:34:48;13.00;50.10
37518;DHT22;23366;52.498;13.446;2023-04-06T12:37:14;12.90;50.40
37518;DHT22;23366;52.498;13.446;2023-04-06T12:39:40;13.00;50.60
37518;DHT22;23366;52.498;13.446;2023-04-06T12:42:05;13.10;51.10
37518;DHT22;23366;52.498;13.446;2023-04-06T12:44:31;13.00;51.10
37518;DHT22;23366;52.498;13.446;2023-04-06T12:46:56;13.00;50.90
37518;DHT22;23366;52.498;13.446;2023-04-06T12:49:22;13.00;51.60
37518;DHT22;23366;52.498;13.446;2023-04-06T12:51:47;12.90;51.40
37518;DHT22;23366;52.498;13.446;2023-04-06T12:54:13;12.80;50.90
37518;DHT22;23366;52.498;13.446;2023-04-06T12:56:39;12.80;51.20
37518;DHT22;23366;52.498;13.446;2023-04-06T12:59:04;13.10;51.60
37518;DHT22;23366;52.498;13.446;2023-04-06T13:01:30;13.20;52.30
37518;DHT22;23366;52.498;13.446;2023-04-06T13:03:56;13.10;51.00
37518;DHT22;23366;52.498;13.446;2023-04-06T13:06:23;13.30;51.00
37518;DHT22;23366;52.498;13.446;2023-04-06T13:08:52;13.50;50.20
37518;DHT22;23366;52.498;13.446;2023-04-06T13:11:18;13.70;50.80
37518;DHT22;23366;52.498;13.446;2023-04-06T13:13:43;13.40;51.10
37518;DHT22;23366;52.498;13.446;2023-04-06T13:16:09;13.30;50.10
37518;DHT22;23366;52.498;13.446;2023-04-06T13:18:35;13.00;50.30
37518;DHT22;23366;52.498;13.446;2023-04-06T13:21:04;12.90;50.30
37518;DHT22;23366;52.498;13.446;2023-04-06T13:23:29;12.90;51.20
37518;DHT22;23366;52.498;13.446;2023-04-06T13:28:24;12.40;53.00
37518;DHT22;23366;52.498;13.446;2023-04-06T13:30:49;12.30;54.20
37518;DHT22;23366;52.498;13.446;2023-04-06T13:33:15;12.20;53.30
37518;DHT22;23366;52.498;13.446;2023-04-06T13:35:44;12.00;51.40
37518;DHT22;23366;52.498;13.446;2023-04-06T13:38:10;12.10;51.90
37518;DHT22;23366;52.498;13.446;2023-04-06T13:40:38;12.10;53.00
37518;DHT22;23366;52.498;13.446;2023-04-06T13:43:04;12.00;53.70
37518;DHT22;23366;52.498;13.446;2023-04-06T13:45:30;11.90;54.30
37518;DHT22;23366;52.498;13.446;2023-04-06T13:47:56;11.80;54.40
37518;DHT22;23366;52.498;13.446;2023-04-06T13:50:21;11.60;54.80
37518;DHT22;23366;52.498;13.446;2023-04-06T13:52:47;11.50;54.80
37518;DHT22;23366;52.498;13.446;2023-04-06T13:55:12;11.30;55.60
37518;DHT22;23366;52.498;13.446;2023-04-06T13:57:38;11.30;55.50
37518;DHT22;23366;52.498;13.446;2023-04-06T14:00:04;11.20;55.30
37518;DHT22;23366;52.498;13.446;2023-04-06T14:02:30;11.10;55.50
37518;DHT22;23366;52.498;13.446;2023-04-06T14:04:55;11.00;56.10
37518;DHT22;23366;52.498;13.446;2023-04-06T14:07:21;11.10;55.90
37518;DHT22;23366;52.498;13.446;2023-04-06T14:09:47;11.20;56.00
37518;DHT22;23366;52.498;13.446;2023-04-06T14:12:12;11.20;55.30
37518;DHT22;23366;52.498;13.446;2023-04-06T14:14:38;11.10;55.10
37518;DHT22;23366;52.498;13.446;2023-04-06T14:17:04;11.10;55.00
37518;DHT22;23366;52.498;13.446;2023-04-06T14:19:29;11.00;54.90
37518;DHT22;23366;52.498;13.446;2023-04-06T14:21:55;10.90;54.80
37518;DHT22;23366;52.498;13.446;2023-04-06T14:24:21;11.00;55.70
37518;DHT22;23366;52.498;13.446;2023-04-06T14:26:47;11.00;55.70
37518;DHT22;23366;52.498;13.446;2023-04-06T14:29:13;11.00;55.50
37518;DHT22;23366;52.498;13.446;2023-04-06T14:31:39;11.00;55.40
37518;DHT22;23366;52.498;13.446;2023-04-06T14:34:04;10.90;54.90
37518;DHT22;23366;52.498;13.446;2023-04-06T14:36:33;10.90;55.20
37518;DHT22;23366;52.498;13.446;2023-04-06T14:39:04;10.90;55.20
37518;DHT22;23366;52.498;13.446;2023-04-06T14:41:30;10.90;55.00
37518;DHT22;23366;52.498;13.446;2023-04-06T14:43:56;10.80;55.90
37518;DHT22;23366;52.498;13.446;2023-04-06T14:46:22;10.80;56.10
37518;DHT22;23366;52.498;13.446;2023-04-06T14:48:48;10.70;55.60
37518;DHT22;23366;52.498;13.446;2023-04-06T14:51:13;10.70;55.40
37518;DHT22;23366;52.498;13.446;2023-04-06T14:53:39;10.60;56.00
37518;DHT22;23366;52.498;13.446;2023-04-06T14:56:05;10.70;56.50
37518;DHT22;23366;52.498;13.446;2023-04-06T14:58:31;10.80;55.90
37518;DHT22;23366;52.498;13.446;2023-04-06T15:01:01;10.90;55.50
37518;DHT22;23366;52.498;13.446;2023-04-06T15:03:27;10.80;55.60
37518;DHT22;23366;52.498;13.446;2023-04-06T15:05:54;10.80;55.40
37518;DHT22;23366;52.498;13.446;2023-04-06T15:08:20;10.90;55.60
37518;DHT22;23366;52.498;13.446;2023-04-06T15:10:47;10.80;56.00
37518;DHT22;23366;52.498;13.446;2023-04-06T15:13:12;10.80;55.80
37518;DHT22;23366;52.498;13.446;2023-04-06T15:15:38;10.80;56.30
37518;DHT22;23366;52.498;13.446;2023-04-06T15:18:04;10.90;55.50
37518;DHT22;23366;52.498;13.446;2023-04-06T15:20:29;10.90;55.60
37518;DHT22;23366;52.498;13.446;2023-04-06T15:22:56;10.80;55.80
37518;DHT22;23366;52.498;13.446;2023-04-06T15:25:21;10.80;56.10
37518;DHT22;23366;52.498;13.446;2023-04-06T15:27:47;10.80;56.10